Time;durP1;ratioP1;P1;durP2;ratioP2;P2;SDS_P1;SDS_P2;PMS_P1;PMS_P2;Temp;Humidity;BMP_temperature;BMP_pressure;BME280_temperature;BME280_humidity;BME280_pressure;Samples;Min_cycle;Max_cycle;Signal;HPM_P1;HPM_P2
2022/03/22 00:02:15;;;;;;;18.65;11.50;;;;;;;4.23;66.53;101543.66;5030546;28;20471;-67
2022/03/22 00:04:41;;;;;;;18.42;11.13;;;;;;;4.57;65.84;101561.22;5030702;28;20582;-67
2022/03/22 00:07:08;;;;;;;17.90;11.18;;;;;;;4.55;66.51;101569.53;5030239;28;20130;-67
2022/03/22 00:09:33;;;;;;;19.83;11.10;;;;;;;4.20;67.94;101544.41;5030598;28;20037;-67
2022/03/22 00:11:59;;;;;;;16.80;11.15;;;;;;;4.49;66.30;101542.56;5030715;28;20034;-67
2022/03/22 00:14:25;;;;;;;17.70;10.43;;;;;;;4.56;66.33;101564.53;5030698;28;20029;-67
2022/03/22 00:16:52;;;;;;;16.52;11.05;;;;;;;4.57;65.65;101556.16;5030344;28;20033;-67
2022/03/22 00:19:18;;;;;;;15.70;10.52;;;;;;;4.91;65.23;101560.25;5030306;28;20081;-67
2022/03/22 00:21:43;;;;;;;21.08;11.38;;;;;;;4.42;67.80;101520.56;5030958;28;20113;-68
2022/03/22 00:24:08;;;;;;;19.52;11.63;;;;;;;4.63;65.74;101547.88;5030447;28;20034;-68
2022/03/22 00:26:34;;;;;;;19.17;12.10;;;;;;;4.61;65.33;101540.31;5030701;28;20034;-67
2022/03/22 00:29:00;;;;;;;17.88;12.38;;;;;;;4.68;66.12;101541.25;5030802;28;20555;-68
2022/03/22 00:31:25;;;;;;;22.23;13.45;;;;;;;4.61;65.26;101487.44;5030523;28;20040;-68
2022/03/22 00:33:51;;;;;;;18.02;11.57;;;;;;;4.78;65.89;101533.09;5030448;28;20411;-67
2022/03/22 00:36:16;;;;;;;22.70;12.38;;;;;;;4.85;63.16;101504.69;5030340;28;20479;-68
2022/03/22 00:38:42;;;;;;;19.75;12.52;;;;;;;5.17;59.56;101503.63;5030445;28;20207;-67
2022/03/22 00:41:07;;;;;;;20.38;12.23;;;;;;;5.40;58.88;101520.03;5030590;28;20076;-67
2022/03/22 00:43:34;;;;;;;18.02;11.13;;;;;;;5.74;55.31;101476.03;5030332;28;20033;-67
2022/03/22 00:46:01;;;;;;;16.35;10.35;;;;;;;6.05;53.43;101478.22;5030274;28;20067;-68
2022/03/22 00:48:27;;;;;;;15.35;9.75;;;;;;;6.76;51.16;101500.22;5030216;28;20033;-67
2022/03/22 00:50:53;;;;;;;13.40;8.85;;;;;;;6.91;48.77;101457.44;5030256;28;20036;-67
2022/03/22 00:53:19;;;;;;;13.57;8.43;;;;;;;7.30;47.15;101494.06;5030229;28;20474;-67
2022/03/22 00:55:45;;;;;;;15.55;8.25;;;;;;;7.53;45.33;101455.50;5030212;28;20036;-67
2022/03/22 00:58:11;;;;;;;13.27;8.27;;;;;;;7.60;44.16;101453.88;5030329;28;20025;-67
2022/03/22 01:03:11;;;;;;;11.63;8.60;;;;;;;7.74;44.29;101480.97;4123029;22;10000730;-67
2022/03/22 01:05:37;;;;;;;11.98;9.00;;;;;;;7.67;43.63;101453.91;5034275;28;20057;-67
2022/03/22 01:08:08;;;;;;;16.27;8.68;;;;;;;8.06;42.59;101455.03;5030028;28;20037;-67
2022/03/22 01:10:39;;;;;;;12.05;8.48;;;;;;;8.24;42.40;101481.31;5030163;28;20132;-67
2022/03/22 01:13:11;;;;;;;13.57;8.13;;;;;;;8.23;42.56;101473.72;5030351;28;20112;-67
2022/03/22 01:15:37;;;;;;;13.45;8.27;;;;;;;8.03;42.12;101444.88;5030074;28;20108;-66
2022/03/22 01:18:08;;;;;;;12.30;8.30;;;;;;;7.98;43.45;101455.00;5030166;28;20033;-67
2022/03/22 01:20:37;;;;;;;11.13;8.63;;;;;;;8.16;42.34;101475.34;5033475;28;20037;-67
2022/03/22 01:23:05;;;;;;;12.15;7.90;;;;;;;7.85;42.23;101410.16;5033676;28;20060;-67
2022/03/22 01:25:32;;;;;;;13.88;8.73;;;;;;;8.03;42.73;101460.94;5033200;28;20487;-67
2022/03/22 01:27:58;;;;;;;12.93;8.80;;;;;;;7.73;43.30;101423.59;5032396;28;20410;-67
2022/03/22 01:30:24;;;;;;;10.73;8.02;;;;;;;7.89;43.04;101463.38;5033721;28;20025;-66
2022/03/22 01:32:53;;;;;;;11.10;8.40;;;;;;;7.79;43.30;101422.78;5033436;28;20609;-66
2022/03/22 01:35:20;;;;;;;10.88;8.05;;;;;;;7.69;43.08;101426.94;5033885;28;20098;-66
2022/03/22 01:37:49;;;;;;;13.10;8.68;;;;;;;7.48;43.93;101418.34;5033906;28;20116;-66
2022/03/22 01:40:17;;;;;;;13.30;8.90;;;;;;;7.88;43.26;101443.13;5033337;28;20048;-67
2022/03/22 01:42:42;;;;;;;12.32;8.43;;;;;;;7.67;42.98;101404.97;5033354;28;20030;-67
2022/03/22 01:45:09;;;;;;;11.85;8.00;;;;;;;8.00;42.74;101405.22;5033335;28;20041;-66
2022/03/22 01:47:36;;;;;;;12.93;7.70;;;;;;;7.94;42.52;101400.13;5033298;28;20168;-66
2022/03/22 01:50:04;;;;;;;16.30;8.07;;;;;;;8.21;41.11;101420.50;5033420;28;20561;-67
2022/03/22 01:52:33;;;;;;;14.77;8.27;;;;;;;8.04;42.09;101404.38;5031514;28;20033;-66
2022/03/22 01:54:58;;;;;;;14.70;8.02;;;;;;;8.20;41.76;101416.25;5033157;28;20025;-66
2022/03/22 01:57:24;;;;;;;17.08;9.15;;;;;;;8.16;41.97;101416.25;5033173;28;20029;-66
2022/03/22 01:59:50;;;;;;;12.60;8.05;;;;;;;8.06;41.43;101390.00;5031777;28;20044;-66
2022/03/22 02:07:46;;;;;;;16.08;8.98;;;;;;;8.03;41.71;101374.81;5033078;28;20139;-67
2022/03/22 02:10:12;;;;;;;13.65;8.65;;;;;;;8.15;41.85;101377.41;5032817;28;20065;-66
2022/03/22 02:12:38;;;;;;;13.02;9.25;;;;;;;8.27;41.09;101385.09;5032828;28;20033;-66
2022/03/22 02:15:05;;;;;;;13.88;9.13;;;;;;;8.31;41.39;101396.94;5032652;28;20037;-66
2022/03/22 02:17:30;;;;;;;13.13;9.10;;;;;;;8.31;41.37;101402.00;5032513;28;20025;-66
2022/03/22 02:19:57;;;;;;;14.50;9.25;;;;;;;8.18;42.18;101384.19;5032624;28;20056;-67
2022/03/22 02:22:33;;;;;;;13.82;9.23;;;;;;;8.05;42.31;101352.88;5032574;28;20118;-66
2022/03/22 02:24:58;;;;;;;13.85;9.52;;;;;;;8.08;41.90;101347.00;5032574;28;20044;-67
2022/03/22 02:27:27;;;;;;;15.18;9.68;;;;;;;8.26;41.89;101372.44;5032451;28;20434;-66
2022/03/22 02:29:52;;;;;;;16.02;9.65;;;;;;;8.22;42.51;101386.72;5030859;28;20112;-66
2022/03/22 02:32:25;;;;;;;15.35;9.63;;;;;;;7.94;43.29;101341.03;5032048;28;20029;-66
2022/03/22 02:34:52;;;;;;;15.63;10.13;;;;;;;8.18;43.44;101379.94;5032438;28;20108;-67
2022/03/22 02:37:18;;;;;;;14.82;10.25;;;;;;;8.13;43.64;101374.03;5032418;28;20140;-67
2022/03/22 02:39:44;;;;;;;13.80;10.18;;;;;;;7.93;43.28;101347.75;5032191;28;20037;-66
2022/03/22 02:42:10;;;;;;;16.92;10.13;;;;;;;7.99;43.87;101360.47;5032084;28;20380;-67
2022/03/22 02:44:35;;;;;;;15.88;10.40;;;;;;;8.03;43.69;101369.75;5030682;28;20036;-66
2022/03/22 02:47:01;;;;;;;13.45;9.75;;;;;;;7.78;43.55;101333.34;5032136;28;20041;-66
2022/03/22 02:49:26;;;;;;;14.40;9.77;;;;;;;7.82;43.97;101349.41;5030741;28;20052;-67
2022/03/22 02:51:51;;;;;;;16.48;10.63;;;;;;;7.80;44.29;101364.56;5032212;28;20029;-67
2022/03/22 02:54:17;;;;;;;15.82;11.02;;;;;;;7.56;44.99;101334.06;5032090;28;20501;-67
2022/03/22 02:56:42;;;;;;;17.48;10.15;;;;;;;7.66;44.59;101330.75;5030390;28;20406;-66
2022/03/22 02:59:08;;;;;;;14.63;10.73;;;;;;;7.70;44.56;101349.34;5031806;28;20514;-67
2022/03/22 03:01:34;;;;;;;17.00;11.07;;;;;;;7.56;45.28;101348.41;5031299;28;20513;-67
2022/03/22 03:04:00;;;;;;;18.17;11.27;;;;;;;7.65;45.34;101363.63;5031902;28;20506;-67
2022/03/22 03:06:28;;;;;;;16.65;11.07;;;;;;;7.59;45.55;101358.53;5031900;28;20242;-67
2022/03/22 03:08:53;;;;;;;17.35;11.65;;;;;;;7.64;45.60;101340.03;5031707;28;20474;-67
2022/03/22 03:11:19;;;;;;;20.48;12.18;;;;;;;7.76;45.23;101329.13;5031768;28;20033;-66
2022/03/22 03:14:47;;;;;;;18.15;12.30;;;;;;;8.02;45.06;101369.75;5031437;28;20187;-67
2022/03/22 03:16:39;;;;;;;19.00;11.48;;;;;;;7.93;45.24;101350.28;5022267;28;20044;-67
2022/03/22 03:19:05;;;;;;;16.83;11.48;;;;;;;8.07;45.05;101365.56;5031569;28;20029;-67
2022/03/22 03:21:31;;;;;;;17.25;12.10;;;;;;;7.92;45.52;101351.16;5031511;28;20552;-67
2022/03/22 03:23:56;;;;;;;18.98;11.98;;;;;;;7.58;45.79;101317.22;5031375;28;20119;-67
2022/03/22 03:26:21;;;;;;;17.65;11.23;;;;;;;7.37;46.11;101298.53;5029878;28;20045;-67
2022/03/22 03:28:47;;;;;;;15.20;11.35;;;;;;;7.51;46.68;101322.22;5031336;28;20502;-67
2022/03/22 03:31:12;;;;;;;17.80;11.50;;;;;;;7.56;47.07;101341.66;5031443;28;20026;-67
2022/03/22 03:33:38;;;;;;;19.38;11.30;;;;;;;7.42;47.18;101312.91;5029940;28;20037;-68
2022/03/22 03:36:03;;;;;;;17.63;12.13;;;;;;;7.34;47.28;101294.31;5030918;28;20414;-68
2022/03/22 03:38:29;;;;;;;17.85;11.82;;;;;;;7.56;46.94;101305.38;5031094;28;20422;-67
2022/03/22 03:43:39;;;;;;;20.85;12.70;;;;;;;7.89;46.04;101346.06;5030498;28;20072;-67
2022/03/22 03:48:48;;;;;;;17.15;12.27;;;;;;;7.69;46.76;101325.69;5030815;28;20420;-67
2022/03/22 03:51:13;;;;;;;21.13;12.57;;;;;;;7.74;46.85;101330.81;5029593;28;20029;-68
2022/03/22 03:53:38;;;;;;;21.25;12.70;;;;;;;7.71;47.04;101334.16;5030450;28;20041;-67
2022/03/22 03:56:04;;;;;;;17.70;12.20;;;;;;;7.67;47.38;101332.44;5030782;28;20034;-68
2022/03/22 03:58:30;;;;;;;17.60;13.00;;;;;;;7.60;47.18;101302.91;5030838;28;20457;-68
2022/03/22 04:00:55;;;;;;;20.10;12.50;;;;;;;7.52;46.88;101268.25;5030654;28;20033;-67
2022/03/22 04:03:21;;;;;;;19.45;12.93;;;;;;;7.61;47.43;101308.78;5029259;28;20045;-67
2022/03/22 04:05:46;;;;;;;24.45;13.00;;;;;;;7.81;47.66;101337.56;5030705;28;20061;-66
2022/03/22 04:08:11;;;;;;;19.10;12.50;;;;;;;7.71;47.43;101302.94;5030185;28;20033;-68
2022/03/22 04:10:37;;;;;;;18.15;12.48;;;;;;;7.74;47.23;101302.97;5030749;28;20424;-67
2022/03/22 04:13:02;;;;;;;18.95;12.32;;;;;;;7.93;47.72;101341.84;5030715;28;20053;-67
2022/03/22 04:15:29;;;;;;;20.25;12.77;;;;;;;7.73;47.27;101303.78;5030299;28;20025;-67
2022/03/22 04:17:56;;;;;;;18.35;12.73;;;;;;;7.62;47.63;101306.28;5030657;28;20034;-67
2022/03/22 04:20:22;;;;;;;23.15;13.60;;;;;;;7.86;47.40;101329.16;5029295;28;20480;-67
2022/03/22 04:22:47;;;;;;;24.20;13.48;;;;;;;7.64;47.86;101313.88;5030009;28;20113;-67
2022/03/22 04:25:13;;;;;;;20.85;13.02;;;;;;;7.92;47.85;101327.50;5030788;28;20052;-68
2022/03/22 04:33:08;;;;;;;19.95;12.23;;;;;;;7.80;48.13;101344.31;5030071;28;20106;-67
2022/03/22 04:35:33;;;;;;;19.52;12.80;;;;;;;7.75;48.79;101337.53;5030474;28;20467;-68
2022/03/22 04:37:59;;;;;;;18.92;12.63;;;;;;;7.58;49.33;101314.69;5030831;28;20541;-68
2022/03/22 04:40:25;;;;;;;20.02;12.98;;;;;;;7.43;48.94;101313.72;5030244;28;20124;-68
2022/03/22 04:42:51;;;;;;;21.98;12.75;;;;;;;7.43;49.46;101314.56;5030313;28;20022;-67
2022/03/22 04:45:17;;;;;;;21.20;13.48;;;;;;;7.78;48.89;101309.72;5030327;28;20033;-67
2022/03/22 04:47:45;;;;;;;20.35;13.55;;;;;;;9.42;46.71;101304.94;5030260;28;20033;-67
2022/03/22 04:50:11;;;;;;;20.35;13.07;;;;;;;7.96;47.88;101293.78;5030284;28;20455;-67
2022/03/22 04:58:05;;;;;;;22.15;13.52;;;;;;;7.42;50.98;101304.47;5033627;28;20071;-68
2022/03/22 05:00:30;;;;;;;21.02;14.05;;;;;;;7.25;50.99;101279.03;5033968;28;20037;-66
2022/03/22 05:02:56;;;;;;;19.02;13.07;;;;;;;7.39;52.13;101333.09;5034242;28;20045;-67
2022/03/22 05:08:06;;;;;;;20.10;13.63;;;;;;;7.40;52.14;101285.91;5034068;28;20099;-67
2022/03/22 05:10:35;;;;;;;20.25;13.73;;;;;;;7.32;52.69;101297.66;5033864;28;20034;-66
2022/03/22 05:13:02;;;;;;;19.35;13.68;;;;;;;7.51;52.05;101309.56;5033910;28;20040;-69
2022/03/22 05:15:27;;;;;;;19.95;13.70;;;;;;;7.76;52.72;101331.66;5032426;28;20389;-68
2022/03/22 05:17:53;;;;;;;21.55;13.15;;;;;;;7.85;53.00;101334.22;5033517;28;20549;-68
2022/03/22 05:20:19;;;;;;;19.90;12.88;;;;;;;8.04;52.79;101346.16;5033963;28;20033;-67
2022/03/22 05:22:44;;;;;;;18.48;12.57;;;;;;;8.18;52.00;101339.41;5033879;28;20476;-68
2022/03/22 05:25:10;;;;;;;22.13;13.60;;;;;;;7.88;52.37;101293.75;5033411;28;20034;-67
2022/03/22 05:27:37;;;;;;;19.63;14.05;;;;;;;8.02;52.54;101276.91;5033357;28;20380;-68
2022/03/22 05:30:04;;;;;;;20.83;13.77;;;;;;;8.50;51.98;101299.00;5033751;28;20030;-68
2022/03/22 05:32:29;;;;;;;18.63;12.73;;;;;;;8.74;51.09;101309.19;5032608;28;20540;-67
2022/03/22 05:34:55;;;;;;;22.08;13.98;;;;;;;9.21;50.58;101276.22;5033603;28;20116;-68
2022/03/22 05:37:22;;;;;;;22.58;14.38;;;;;;;9.30;50.38;101302.41;5033341;28;20116;-69
2022/03/22 05:39:48;;;;;;;23.42;14.43;;;;;;;9.59;50.72;101292.19;5032789;28;20025;-67
2022/03/22 05:42:14;;;;;;;20.42;13.77;;;;;;;9.58;50.06;101298.13;5033272;28;20041;-69
2022/03/22 05:44:39;;;;;;;23.85;13.50;;;;;;;9.94;52.70;101300.53;5032653;28;20040;-70
2022/03/22 05:47:06;;;;;;;20.23;14.15;;;;;;;9.80;51.34;101266.75;5033074;28;20040;-69
2022/03/22 05:49:33;;;;;;;22.45;14.50;;;;;;;9.58;51.63;101265.13;5031967;28;20131;-67
2022/03/22 05:52:04;;;;;;;21.70;13.70;;;;;;;9.97;50.32;101264.97;5033161;28;20033;-69
2022/03/22 05:54:30;;;;;;;;;;;;;;;10.29;50.12;101298.72;5033209;28;21214;-68
2022/03/22 05:56:55;;;;;;;20.02;13.48;;;;;;;10.18;50.54;101284.38;5033085;28;19913;-68
2022/03/22 05:59:21;;;;;;;22.95;14.18;;;;;;;10.80;49.96;101283.94;5032160;28;20462;-68
2022/03/22 06:01:46;;;;;;;17.08;12.25;;;;;;;10.72;49.19;101299.25;5032492;28;20033;-69
2022/03/22 06:04:12;;;;;;;22.30;14.05;;;;;;;10.31;49.95;101269.03;5032971;28;20025;-68
2022/03/22 06:06:38;;;;;;;21.48;12.63;;;;;;;10.85;49.58;101284.75;5031425;28;20075;-69
2022/03/22 06:09:04;;;;;;;14.50;10.80;;;;;;;11.24;49.61;101307.31;5032006;28;20492;-67
2022/03/22 06:11:35;;;;;;;13.68;9.88;;;;;;;10.66;49.76;101248.44;5032315;28;20515;-68
2022/03/22 06:14:05;;;;;;;15.48;9.52;;;;;;;11.27;49.02;101285.22;5030894;28;20026;-67
2022/03/22 06:16:30;;;;;;;17.17;9.88;;;;;;;10.99;49.58;101318.56;5032177;28;20034;-67
2022/03/22 06:18:56;;;;;;;13.25;9.77;;;;;;;11.43;49.21;101274.88;5032048;28;20125;-67
2022/03/22 06:21:22;;;;;;;14.32;9.70;;;;;;;11.29;49.82;101305.56;5031984;28;20026;-68
2022/03/22 06:23:47;;;;;;;15.40;10.05;;;;;;;11.33;48.91;101330.97;5030927;28;20052;-68
2022/03/22 06:26:14;;;;;;;18.92;12.00;;;;;;;10.22;50.08;101296.22;5032607;28;20029;-68
2022/03/22 06:28:40;;;;;;;21.80;14.05;;;;;;;10.56;50.00;101290.03;5032334;28;20479;-68
2022/03/22 06:31:05;;;;;;;19.00;13.57;;;;;;;10.64;50.38;101320.50;5032325;28;20059;-67
2022/03/22 06:33:31;;;;;;;19.08;13.07;;;;;;;10.70;49.62;101277.22;5032383;28;20025;-68
2022/03/22 06:35:56;;;;;;;18.02;11.77;;;;;;;10.78;49.49;101278.00;5032196;28;20132;-68
2022/03/22 06:38:22;;;;;;;15.38;10.73;;;;;;;10.97;50.82;101308.38;5032173;28;20521;-68
2022/03/22 06:40:49;;;;;;;16.20;9.88;;;;;;;10.89;51.44;101314.41;5032659;28;20410;-68
2022/03/22 06:43:16;;;;;;;12.18;8.40;;;;;;;11.12;50.89;101303.19;5032216;28;20033;-68
2022/03/22 06:45:43;;;;;;;16.25;10.43;;;;;;;12.18;49.72;101269.72;5032240;28;20035;-68
2022/03/22 06:48:09;;;;;;;14.40;10.88;;;;;;;12.44;48.28;101273.63;5032008;28;20022;-68
2022/03/22 06:50:36;;;;;;;15.02;11.25;;;;;;;12.48;48.01;101290.56;5031912;28;20036;-68
2022/03/22 06:53:02;;;;;;;17.95;12.38;;;;;;;12.29;48.42;101312.09;5031896;28;20116;-68
2022/03/22 06:55:28;;;;;;;14.57;10.55;;;;;;;12.19;48.02;101304.56;5032087;28;20030;-68
2022/03/22 06:57:53;;;;;;;16.48;10.63;;;;;;;11.44;49.94;101267.22;5031831;28;20033;-66
2022/03/22 07:00:22;;;;;;;19.52;10.75;;;;;;;12.74;48.57;101296.94;5031865;28;20026;-68
2022/03/22 07:02:49;;;;;;;17.92;10.70;;;;;;;11.98;51.38;101311.66;5031783;28;20041;-68
2022/03/22 07:05:15;;;;;;;14.30;8.63;;;;;;;12.09;52.23;101320.84;5031359;28;20033;-68
2022/03/22 07:07:41;;;;;;;14.65;8.65;;;;;;;12.69;51.14;101262.16;5031434;28;20065;-68
2022/03/22 07:10:09;;;;;;;18.90;10.00;;;;;;;13.04;50.02;101272.66;5032060;28;20495;-68
2022/03/22 07:12:55;;;;;;;12.40;8.70;;;;;;;13.12;50.11;101288.69;5030477;28;20034;-68
2022/03/22 07:15:26;;;;;;;14.52;8.52;;;;;;;12.80;51.81;101293.47;5031724;28;20047;-68
2022/03/22 07:17:56;;;;;;;13.73;8.52;;;;;;;13.24;50.93;101262.94;5031089;28;20033;-68
2022/03/22 07:20:22;;;;;;;13.38;7.97;;;;;;;13.20;50.06;101294.53;5031662;28;20087;-69
2022/03/22 07:22:47;;;;;;;13.65;7.75;;;;;;;13.49;50.19;101282.06;5031414;28;20026;-68
2022/03/22 07:25:13;;;;;;;12.73;8.30;;;;;;;12.78;51.65;101255.22;5031482;28;20496;-68
2022/03/22 07:27:39;;;;;;;15.05;9.32;;;;;;;13.07;51.53;101257.31;5031303;28;20038;-66
2022/03/22 07:30:05;;;;;;;12.75;8.98;;;;;;;13.19;51.74;101263.91;5031073;28;20036;-68
2022/03/22 07:32:31;;;;;;;10.75;7.28;;;;;;;13.21;51.54;101263.00;5030051;28;20032;-68
2022/03/22 07:35:00;;;;;;;14.00;7.88;;;;;;;13.01;52.43;101234.41;5030644;28;20029;-67
2022/03/22 07:37:26;;;;;;;12.07;7.53;;;;;;;14.34;51.40;101253.00;5031236;28;20025;-68
2022/03/22 07:39:52;;;;;;;14.38;8.90;;;;;;;13.86;50.70;101264.28;5031770;28;20107;-68
2022/03/22 07:42:17;;;;;;;15.40;8.32;;;;;;;13.64;51.20;101233.22;5031198;28;20484;-67
2022/03/22 07:44:43;;;;;;;10.07;7.25;;;;;;;13.35;51.28;101215.06;5030984;28;20116;-68
2022/03/22 07:47:08;;;;;;;13.43;8.65;;;;;;;13.65;50.90;101237.44;5030953;28;20483;-69
2022/03/22 07:55:01;;;;;;;14.13;8.43;;;;;;;13.72;52.19;101187.06;5030786;28;20107;-69
2022/03/22 07:57:27;;;;;;;11.52;6.90;;;;;;;13.89;53.18;101201.16;5030729;28;20029;-68
2022/03/22 07:59:52;;;;;;;11.85;5.80;;;;;;;13.53;53.56;101181.47;5029711;28;20026;-68
2022/03/22 08:02:18;;;;;;;13.75;6.85;;;;;;;13.86;54.35;101203.75;5030503;28;20045;-69
2022/03/22 08:04:43;;;;;;;10.85;6.70;;;;;;;13.53;52.92;101212.13;5030869;28;20033;-68
2022/03/22 08:07:09;;;;;;;14.23;9.77;;;;;;;13.76;51.91;101193.78;5030705;28;20025;-67
2022/03/22 08:09:35;;;;;;;14.77;8.52;;;;;;;14.34;51.61;101239.41;5030673;28;20028;-69
2022/03/22 08:12:00;;;;;;;13.73;7.90;;;;;;;13.31;53.60;101187.88;5030954;28;20022;-68
2022/03/22 08:14:26;;;;;;;14.13;6.95;;;;;;;13.57;54.69;101221.44;5030745;28;20048;-68
2022/03/22 08:16:51;;;;;;;10.82;7.05;;;;;;;13.69;54.64;101218.63;5030468;28;20480;-68
2022/03/22 08:19:18;;;;;;;10.88;6.00;;;;;;;13.00;54.55;101202.06;5030607;28;20116;-69
2022/03/22 08:21:48;;;;;;;12.25;6.97;;;;;;;13.70;55.26;101224.59;5030523;28;20124;-69
2022/03/22 08:24:14;;;;;;;17.55;9.93;;;;;;;13.22;54.89;101207.66;5030431;28;20503;-69
2022/03/22 08:26:40;;;;;;;13.70;7.65;;;;;;;13.61;55.08;101223.03;5030421;28;20086;-68
2022/03/22 08:29:05;;;;;;;12.93;7.70;;;;;;;14.07;54.04;101209.28;5030195;28;20037;-69
2022/03/22 08:31:31;;;;;;;12.95;7.07;;;;;;;14.20;53.61;101223.50;5030388;28;20039;-68
2022/03/22 08:33:57;;;;;;;12.20;6.93;;;;;;;14.06;53.04;101190.56;5030532;28;20061;-69
2022/03/22 08:36:23;;;;;;;12.07;7.00;;;;;;;13.90;52.27;101169.59;5030009;28;20120;-69
2022/03/22 08:38:49;;;;;;;14.68;7.00;;;;;;;14.32;53.01;101208.72;5030185;28;20502;-68
2022/03/22 08:41:15;;;;;;;17.70;7.22;;;;;;;13.63;52.89;101220.44;5030028;28;20083;-67
2022/03/22 08:43:41;;;;;;;12.70;7.55;;;;;;;14.10;52.42;101227.13;5030397;28;20029;-68
2022/03/22 08:46:07;;;;;;;13.13;7.40;;;;;;;14.49;51.88;101206.63;5030223;28;20036;-67
2022/03/22 08:48:32;;;;;;;13.10;7.70;;;;;;;13.89;52.16;101170.47;5030335;28;20078;-68
2022/03/22 08:50:58;;;;;;;11.48;7.28;;;;;;;14.86;51.02;101188.59;5030285;28;20072;-67
2022/03/22 08:53:24;;;;;;;12.90;7.53;;;;;;;14.56;51.87;101209.84;5030042;28;20128;-68
2022/03/22 08:55:51;;;;;;;9.88;7.68;;;;;;;15.57;50.49;101146.47;5029772;28;20049;-68
2022/03/22 08:58:16;;;;;;;12.65;7.82;;;;;;;14.66;50.61;101224.09;5030068;28;20113;-67
2022/03/22 09:00:45;;;;;;;12.38;7.68;;;;;;;14.84;50.69;101217.69;5030242;28;20512;-68
2022/03/22 09:03:11;;;;;;;13.40;8.10;;;;;;;14.28;51.63;101199.44;5030182;28;20049;-66
2022/03/22 09:08:20;;;;;;;12.68;7.68;;;;;;;13.81;52.36;101210.69;5029925;28;20128;-67
2022/03/22 09:10:46;;;;;;;11.80;7.13;;;;;;;14.29;50.91;101198.56;5030022;28;20116;-68
2022/03/22 09:13:13;;;;;;;10.43;7.32;;;;;;;14.76;50.43;101175.19;5030117;28;20413;-68
2022/03/22 09:15:39;;;;;;;13.93;7.60;;;;;;;14.74;49.44;101160.75;5030076;28;20060;-68
2022/03/22 09:18:13;;;;;;;11.70;7.93;;;;;;;14.65;49.72;101196.84;5029715;28;20472;-68
2022/03/22 09:20:38;;;;;;;11.52;7.75;;;;;;;14.90;49.26;101182.50;5029984;28;20094;-68
2022/03/22 09:23:04;;;;;;;19.77;8.38;;;;;;;14.58;49.13;101144.09;5029653;28;20029;-68
2022/03/22 09:25:29;;;;;;;19.48;8.32;;;;;;;14.36;49.73;101179.63;5029820;28;20034;-68
2022/03/22 09:27:56;;;;;;;19.00;9.50;;;;;;;14.54;49.94;101155.28;5029923;28;20124;-68
2022/03/22 09:30:22;;;;;;;14.32;8.77;;;;;;;14.58;49.90;101141.53;5029929;28;20033;-68
2022/03/22 09:32:48;;;;;;;15.73;9.35;;;;;;;15.11;48.66;101123.03;5029689;28;20029;-68
2022/03/22 09:35:19;;;;;;;18.60;9.20;;;;;;;14.60;47.88;101114.19;5029693;28;20498;-68
2022/03/22 09:37:46;;;;;;;14.63;8.80;;;;;;;14.76;48.80;101159.84;5029726;28;20026;-67
2022/03/22 09:40:14;;;;;;;29.98;10.60;;;;;;;14.70;49.90;101102.81;5030413;28;20088;-68
2022/03/22 09:42:42;;;;;;;20.00;9.07;;;;;;;14.89;48.75;101175.72;5033474;28;20026;-67
2022/03/22 09:45:09;;;;;;;13.55;8.43;;;;;;;15.13;48.56;101116.13;5033044;28;20033;-68
2022/03/22 09:47:36;;;;;;;13.07;8.90;;;;;;;14.91;47.48;101157.75;5033258;28;20029;-68
2022/03/22 09:50:04;;;;;;;15.65;8.98;;;;;;;14.89;48.15;101154.41;5032922;28;20026;-67
2022/03/22 09:52:29;;;;;;;13.48;8.68;;;;;;;15.06;47.67;101112.06;5033136;28;20025;-68
2022/03/22 09:54:55;;;;;;;12.93;8.45;;;;;;;14.57;47.60;101102.34;5032969;28;20038;-67
2022/03/22 09:57:20;;;;;;;21.38;10.50;;;;;;;15.16;47.70;101103.25;5033105;28;20502;-67
2022/03/22 09:59:46;;;;;;;16.52;9.80;;;;;;;15.61;47.29;101127.56;5032791;28;20380;-67
2022/03/22 10:02:11;;;;;;;14.02;8.57;;;;;;;15.43;48.22;101114.47;5032827;28;20063;-67
2022/03/22 10:04:36;;;;;;;16.08;8.57;;;;;;;15.68;46.98;101127.38;5032716;28;20120;-67
2022/03/22 10:07:05;;;;;;;19.88;9.90;;;;;;;15.54;46.36;101079.09;5032606;28;20566;-68
2022/03/22 10:09:33;;;;;;;15.05;7.97;;;;;;;15.28;47.52;101079.84;5032974;28;20030;-68
2022/03/22 10:11:59;;;;;;;17.90;8.75;;;;;;;16.30;46.87;101100.56;5032997;28;20470;-68
2022/03/22 10:14:36;;;;;;;13.50;8.00;;;;;;;15.50;46.25;101073.22;5032627;28;20037;-68
2022/03/22 10:17:17;;;;;;;13.50;7.68;;;;;;;15.09;47.91;101114.56;5032594;28;20044;-68
2022/03/22 10:19:43;;;;;;;16.38;7.65;;;;;;;15.57;46.57;101092.63;5032741;28;20033;-68
2022/03/22 10:22:11;;;;;;;14.20;8.85;;;;;;;15.59;46.61;101034.47;5032632;28;20123;-68
2022/03/22 10:24:45;;;;;;;14.32;8.73;;;;;;;16.53;46.21;101056.16;5032486;28;20033;-68
2022/03/22 10:27:34;;;;;;;18.23;8.80;;;;;;;16.25;46.13;101067.34;5031169;28;20410;-68
2022/03/22 10:30:03;;;;;;;12.60;7.55;;;;;;;15.80;46.39;101034.69;5032350;28;20494;-68
2022/03/22 10:32:32;;;;;;;13.98;8.50;;;;;;;16.80;44.64;101052.59;5032477;28;20105;-68
2022/03/22 10:35:20;;;;;;;15.82;9.90;;;;;;;16.66;44.44;101036.88;5032258;28;20094;-68
2022/03/22 10:37:54;;;;;;;14.32;7.65;;;;;;;16.48;45.37;101039.19;5032209;28;20084;-68
2022/03/22 10:40:43;;;;;;;10.85;7.38;;;;;;;17.08;44.00;101033.56;5032334;28;20458;-68
2022/03/22 10:43:18;;;;;;;11.73;6.90;;;;;;;16.67;44.41;101003.44;5032227;28;20026;-68
2022/03/22 10:45:45;;;;;;;10.18;7.00;;;;;;;16.48;44.20;101018.66;5032253;28;20067;-68
2022/03/22 10:48:23;;;;;;;12.18;6.90;;;;;;;17.27;43.35;100980.53;5032072;28;20041;-68
2022/03/22 10:50:50;;;;;;;12.18;7.55;;;;;;;16.51;43.74;100989.47;5031801;28;20076;-67
2022/03/22 10:53:19;;;;;;;11.48;6.10;;;;;;;16.43;43.55;100999.13;5031997;28;20427;-68
2022/03/22 10:55:45;;;;;;;16.80;6.97;;;;;;;17.02;42.47;101002.09;5031981;28;20021;-68
2022/03/22 10:58:14;;;;;;;10.65;6.90;;;;;;;16.86;42.04;100963.31;5031911;28;20112;-68
2022/03/22 11:00:43;;;;;;;14.93;6.00;;;;;;;16.58;42.07;100972.94;5031648;28;20518;-68
2022/03/22 11:03:09;;;;;;;11.20;6.30;;;;;;;16.85;42.27;100999.34;5031141;28;20423;-68
2022/03/22 11:05:34;;;;;;;10.77;6.00;;;;;;;16.77;43.13;100960.25;5031898;28;20047;-69
2022/03/22 11:08:00;;;;;;;11.70;6.78;;;;;;;17.12;42.61;100959.75;5031775;28;20399;-68
2022/03/22 11:10:29;;;;;;;17.08;6.00;;;;;;;16.85;40.72;100973.66;5031555;28;20117;-68
2022/03/22 11:12:58;;;;;;;15.95;6.47;;;;;;;17.09;42.03;100975.28;5031720;28;20037;-68
2022/03/22 11:15:26;;;;;;;10.48;6.05;;;;;;;17.22;40.41;100981.63;5031270;28;20025;-68
2022/03/22 11:17:52;;;;;;;13.90;5.45;;;;;;;16.86;39.99;100960.75;5031334;28;20033;-68
2022/03/22 11:20:18;;;;;;;9.95;5.25;;;;;;;17.32;39.93;100955.50;5031050;28;20040;-69
2022/03/22 11:22:49;;;;;;;10.05;5.43;;;;;;;16.87;41.29;100934.19;5030825;28;20030;-67
2022/03/22 11:25:18;;;;;;;13.35;5.53;;;;;;;16.87;39.12;100913.63;5031416;28;20454;-68
2022/03/22 11:27:56;;;;;;;12.32;5.45;;;;;;;16.83;39.87;100936.91;5031289;28;20112;-68
2022/03/22 11:30:22;;;;;;;13.50;5.30;;;;;;;16.98;39.02;100926.03;5031079;28;20495;-67
2022/03/22 11:35:43;;;;;;;15.10;5.32;;;;;;;17.14;38.79;100898.84;5031070;28;20040;-68
2022/03/22 11:38:10;;;;;;;12.73;5.30;;;;;;;17.98;38.23;100879.88;5031454;28;20106;-69
2022/03/22 11:43:41;;;;;;;14.63;4.95;;;;;;;17.35;38.35;100909.09;5031151;28;20041;-68
2022/03/22 11:46:06;;;;;;;13.85;5.53;;;;;;;17.54;38.33;100898.94;5031060;28;20507;-68
2022/03/22 11:48:32;;;;;;;13.65;5.38;;;;;;;17.40;38.53;100923.50;5031305;28;20028;-68
2022/03/22 11:51:04;;;;;;;11.35;5.35;;;;;;;19.01;36.91;100899.09;5030539;28;20116;-68
2022/03/22 11:53:41;;;;;;;8.55;4.80;;;;;;;18.24;37.72;100896.72;5031137;28;20025;-69
2022/03/22 11:56:07;;;;;;;12.60;5.35;;;;;;;17.90;37.26;100879.38;5030833;28;20185;-68
2022/03/22 11:58:32;;;;;;;12.80;5.22;;;;;;;16.38;39.23;100903.50;5030969;28;20037;-68